Date,TemperatureHighF,TemperatureAvgF,TemperatureLowF,DewpointHighF,DewpointAvgF,DewpointLowF,HumidityHigh,HumidityAvg,HumidityLow,PressureMaxIn,PressureMinIn,WindSpeedMaxMPH,WindSpeedAvgMPH,GustSpeedMaxMPH,PrecipitationSumIn
2013-7-17,82,75,62,57,55,53,75,51,38,0.00,40.00,11,5,16,0.00
2013-7-18,91,78,62,55,46,38,70,36,18,0.00,40.00,22,10,27,0.00
2013-7-19,92,78,63,49,43,38,42,31,22,0.00,40.00,14,8,21,0.00
2013-7-20,89,74,59,51,42,-100,46,33,23,0.00,40.00,16,7,18,0.00
2013-7-21,93,77,61,48,43,39,45,31,17,0.00,40.00,19,13,27,0.00
2013-7-22,93,78,65,52,46,41,50,35,18,0.00,40.00,23,11,28,0.00
2013-7-23,89,74,56,52,47,39,83,43,22,0.00,40.00,18,8,26,0.00
2013-7-24,93,80,66,51,47,41,53,34,20,0.00,40.00,24,12,32,0.00
2013-7-25,81,70,57,52,50,48,79,50,34,0.00,40.00,35,12,46,0.00
2013-7-26,83,68,54,52,48,42,73,51,33,0.00,40.00,22,12,26,0.00
2013-7-27,87,73,56,52,47,42,69,42,25,0.00,40.00,23,8,34,0.00
2013-7-28,80,70,57,54,50,43,81,49,35,0.00,40.00,26,11,32,0.00
2013-7-29,74,64,55,54,48,45,89,59,39,0.00,40.00,24,10,34,0.00
2013-7-30,75,65,59,53,50,45,74,57,41,0.00,40.00,18,9,21,0.00
2013-7-31,88,70,54,52,47,39,88,49,21,0.00,40.00,15,5,19,0.00
2013-8-1,83,72,61,52,48,44,65,42,33,0.00,40.00,45,13,58,0.00
2013-8-2,72,63,56,56,52,48,90,71,46,0.00,40.00,21,8,28,0.00
2013-8-3,79,65,56,56,54,49,89,70,41,0.00,40.00,24,10,29,0.00
2013-8-5,92,80,65,54,44,36,51,30,15,0.00,40.00,34,11,52,0.00
2013-8-6,84,70,59,47,44,39,58,40,25,0.00,40.00,17,7,24,0.00
2013-8-7,88,70,55,48,44,37,64,41,22,0.00,40.00,27,9,34,0.00
2013-8-8,81,66,51,52,47,44,84,54,29,0.00,40.00,18,10,23,0.00
2013-8-9,76,64,54,58,51,45,87,65,37,0.00,40.00,21,13,27,0.00
2013-8-10,83,69,57,56,50,39,90,55,29,0.00,40.00,15,5,21,0.00
2013-8-11,85,74,61,48,44,38,44,35,24,0.00,40.00,14,6,21,0.00
2013-8-12,89,75,62,52,46,41,59,38,20,0.00,40.00,26,7,34,0.00
2013-8-13,83,71,57,50,44,-100,71,41,26,0.00,40.00,18,8,26,0.00
2013-8-14,88,72,59,46,40,-100,52,36,19,0.00,40.00,22,8,30,0.00
2013-8-15,90,68,60,50,33,-100,67,36,21,0.00,40.00,13,6,18,0.00
2013-8-16,94,79,66,49,39,-100,37,27,18,0.00,40.00,24,9,32,0.00
2013-8-17,89,78,68,48,40,-100,31,26,23,0.00,40.00,21,11,29,0.00
2013-8-18,87,77,63,51,47,43,50,35,28,0.00,40.00,19,12,24,0.00
2013-8-19,95,73,66,48,33,-100,40,30,16,0.00,40.00,16,7,24,0.00
2013-8-20,92,79,68,44,37,-100,29,24,18,0.00,40.00,15,6,19,0.00
2013-8-21,83,73,61,49,44,36,47,36,28,0.00,40.00,19,11,28,0.00
2013-8-22,88,74,58,54,50,44,70,45,31,0.00,40.00,14,7,19,0.00
2013-8-23,95,79,67,52,50,45,51,39,22,0.00,40.00,34,8,40,0.00
2013-8-24,87,75,68,53,48,-100,53,41,27,0.00,40.00,16,7,26,0.00
2013-8-25,92,77,68,52,47,44,43,35,22,0.00,40.00,16,5,25,0.00
2013-8-26,92,81,71,52,47,44,37,31,23,0.00,40.00,16,8,29,0.00
2013-8-27,86,76,65,51,47,43,46,37,31,0.00,40.00,9,6,12,0.00
2013-8-28,94,85,71,56,54,52,50,36,26,0.00,40.00,17,7,21,0.00
2013-8-29,92,75,64,55,52,49,61,46,25,0.00,40.00,20,7,27,0.00
2013-8-30,95,78,63,57,50,43,65,42,19,0.00,40.00,15,7,22,0.00
2013-8-31,83,70,62,49,42,-100,48,38,27,0.00,40.00,17,8,22,0.00
2013-9-1,88,72,57,49,42,35,48,35,25,0.00,40.00,17,8,19,0.00
2013-9-2,92,78,64,52,45,37,46,32,23,0.00,40.00,20,8,26,0.00
2013-9-3,92,79,68,55,52,48,55,40,28,0.00,40.00,11,6,16,0.00
2013-9-4,92,79,69,59,53,45,51,41,30,0.00,40.00,14,7,21,0.00
2013-9-5,95,80,67,59,55,51,61,45,30,0.00,40.00,20,6,22,0.00
2013-9-6,91,75,63,60,56,52,81,55,28,0.00,40.00,19,8,27,0.00
2013-9-7,86,71,56,60,54,-100,90,57,31,0.00,40.00,27,11,31,0.00
2013-9-8,71,62,56,58,54,47,87,75,52,0.00,40.00,19,8,29,0.00
2013-9-9,75,64,55,51,44,39,83,52,29,0.00,40.00,19,9,28,0.00
2013-9-10,82,68,55,45,41,36,66,41,24,0.00,40.00,12,6,16,0.00
2013-9-11,81,69,57,45,41,37,49,37,27,0.00,40.00,16,8,19,0.00
2013-9-12,83,68,54,48,44,40,60,42,29,0.00,40.00,14,8,21,0.00
2013-9-13,80,69,59,56,50,44,87,52,36,0.00,40.00,14,7,22,0.00
2013-9-14,68,61,58,57,52,-100,89,75,53,0.00,40.00,23,13,29,0.00
2013-9-15,73,63,53,50,48,46,84,60,41,0.00,40.00,24,14,30,0.00
2013-9-16,84,70,56,49,47,44,71,47,26,0.00,40.00,17,9,23,0.00
2013-9-17,76,66,59,54,49,45,84,54,35,0.00,40.00,18,8,24,0.00
2013-9-18,59,56,52,53,48,36,83,76,52,0.00,40.00,14,6,21,0.00
2013-9-19,62,52,43,36,35,33,75,54,36,0.00,40.00,19,7,24,0.00
2013-9-20,74,61,47,38,34,31,61,39,22,0.00,40.00,16,8,25,0.00
2013-9-21,86,72,52,43,31,-100,44,25,16,0.00,40.00,20,8,32,0.00
2013-9-22,72,64,56,47,37,28,71,37,22,0.00,40.00,14,8,23,0.00
2013-9-23,69,59,50,43,36,28,65,44,24,0.00,40.00,29,13,40,0.00
2013-9-24,76,60,48,37,32,26,42,34,24,0.00,40.00,19,11,26,0.00
2013-9-25,54,47,46,44,41,35,89,80,48,0.00,40.00,19,9,29,0.00
2013-9-26,46,42,38,41,35,31,90,75,55,0.00,40.00,22,9,30,0.00
2013-9-27,50,42,38,36,33,29,90,71,45,0.00,40.00,16,7,22,0.00
2013-9-28,65,50,38,32,28,-100,72,46,27,0.00,40.00,22,11,29,0.00
2013-9-29,69,58,46,33,31,29,57,36,24,0.00,40.00,31,17,46,0.00
2013-9-30,71,54,46,38,32,21,60,45,27,0.00,40.00,42,15,53,0.00
2013-10-1,56,54,51,30,29,28,43,39,35,0.00,40.00,14,9,16,0.00
2013-10-2,56,48,40,38,30,25,79,52,31,0.00,40.00,22,10,28,0.00
2013-10-3,44,37,32,39,34,30,91,90,82,0.00,40.00,29,22,36,0.00
2013-10-4,38,33,31,31,27,20,91,81,51,0.00,40.00,30,12,39,0.00
2013-10-5,50,39,29,26,23,20,74,54,38,0.00,40.00,19,12,29,0.00
2013-10-6,65,49,38,32,27,24,60,44,26,0.00,40.00,17,9,22,0.00
2013-10-7,65,55,46,39,31,24,48,40,32,0.00,40.00,9,4,14,0.00
2013-10-8,61,52,43,34,30,27,61,44,32,0.00,40.00,20,8,28,0.00
2013-10-9,53,46,41,38,32,28,76,57,44,0.00,40.00,14,8,17,0.00
2013-10-10,53,45,38,44,37,34,88,75,53,0.00,40.00,16,3,19,0.00
2013-10-11,49,42,37,39,32,27,85,66,45,0.00,40.00,29,11,37,0.00
2013-10-12,51,41,34,29,25,-100,71,56,36,0.00,40.00,18,9,21,0.00
2013-10-13,43,39,34,38,30,25,91,73,56,0.00,40.00,21,7,27,0.00
2013-10-14,44,38,33,37,28,19,90,72,39,0.00,40.00,24,15,30,0.00
2013-10-15,48,40,32,29,24,18,85,55,35,0.00,40.00,17,7,21,0.00
2013-10-16,51,39,30,35,25,18,89,60,30,0.00,40.00,31,14,42,0.00
2013-10-17,42,36,32,33,29,22,91,77,50,0.00,40.00,13,3,19,0.00
2013-10-18,52,41,32,30,24,20,85,54,28,0.00,40.00,21,12,29,0.00
2013-10-19,58,48,38,29,22,-100,47,37,30,0.00,40.00,22,14,30,0.00
2013-10-20,51,45,41,34,32,30,73,61,45,0.00,40.00,20,11,34,0.00
2013-10-21,58,50,43,34,32,30,65,51,37,0.00,40.00,29,12,36,0.00
2013-10-22,63,51,44,35,33,30,59,49,35,0.00,40.00,10,5,14,0.00
2013-10-23,56,48,39,37,34,28,85,59,47,0.00,40.00,13,6,16,0.00
2013-10-24,55,45,35,35,33,30,91,66,45,0.00,40.00,12,5,17,0.00
2013-10-25,66,52,41,35,30,25,72,47,27,0.00,40.00,14,9,22,0.00
2013-10-26,67,52,41,37,27,-100,59,42,24,0.00,40.00,21,9,28,0.00
2013-10-27,60,49,31,31,28,25,85,46,27,0.00,40.00,32,13,40,0.00
2013-10-28,32,28,23,28,23,-100,92,88,83,0.00,40.00,29,16,40,0.00
2013-10-29,29,26,24,26,23,21,90,89,88,0.00,40.00,2,0,2,0.00
2013-10-30,47,34,22,32,25,19,91,74,44,0.00,40.00,17,6,23,0.00
2013-10-31,54,44,36,29,25,22,61,47,36,0.00,40.00,37,16,49,0.00
2013-11-1,52,44,37,24,22,20,51,42,32,0.00,40.00,19,12,30,0.00
2013-11-2,58,45,33,26,21,-100,58,40,27,0.00,40.00,19,9,30,0.00
2013-11-3,49,39,30,31,22,13,74,51,28,0.00,40.00,27,13,35,0.00
2013-11-4,35,29,23,24,20,15,87,71,56,0.00,40.00,12,6,15,0.00
2013-11-5,40,30,23,27,17,7,91,63,30,0.00,40.00,9,4,13,0.00
2013-11-6,45,37,32,27,19,12,73,48,36,0.00,40.00,24,10,36,0.00
2013-11-7,50,42,32,26,20,17,57,42,33,0.00,40.00,21,9,30,0.00
2013-11-8,49,44,39,33,22,19,76,43,31,0.00,40.00,31,17,39,0.00
2013-11-9,46,38,32,25,19,-100,65,47,37,0.00,40.00,19,8,26,0.00
2013-11-10,46,36,23,26,23,20,90,60,42,0.00,40.00,19,9,26,0.00
2013-11-11,28,23,19,22,19,16,91,84,74,0.00,40.00,12,5,14,0.00
2013-11-12,63,44,24,36,27,20,88,56,33,0.00,40.00,9,3,11,0.00
2013-11-13,59,49,40,31,25,18,42,39,34,0.00,40.00,19,8,30,0.00
2013-11-14,46,40,35,22,18,16,47,42,37,0.00,40.00,12,6,22,0.00
2013-11-15,47,39,32,21,18,14,61,43,29,0.00,40.00,21,9,27,0.00
2013-11-16,44,37,33,29,20,-100,85,53,37,0.00,40.00,22,8,30,0.00
2013-11-17,42,35,30,23,16,11,68,47,29,0.00,40.00,26,11,37,0.00
2013-11-18,54,43,30,23,17,13,50,36,25,0.00,40.00,16,6,20,0.00
2013-11-19,59,50,43,26,20,14,39,31,26,0.00,40.00,24,8,32,0.00
2013-11-20,23,13,5,15,8,0,88,82,72,0.00,40.00,24,13,31,0.00
2013-11-21,21,11,2,8,2,-4,79,68,49,0.00,40.00,12,7,16,0.00
2013-11-22,32,22,11,9,5,2,70,49,35,0.00,40.00,15,8,22,0.00
2013-11-23,41,26,15,16,7,-100,55,47,35,0.00,40.00,8,4,10,0.00
2013-11-24,47,35,23,19,13,7,50,40,28,0.00,40.00,15,8,21,0.00
2013-11-25,42,34,26,21,17,13,75,53,35,0.00,40.00,13,5,15,0.00
2013-11-26,45,36,27,24,21,17,72,56,43,0.00,40.00,8,4,11,0.00
2013-11-27,50,42,37,24,22,20,51,45,36,0.00,40.00,19,10,24,0.00
2013-11-28,36,36,36,24,23,23,60,60,60,0.00,40.00,4,4,6,0.00
2013-11-29,56,48,38,23,21,20,54,35,27,0.00,40.00,16,9,22,0.00
2013-11-30,50,42,39,27,23,-100,52,47,39,0.00,40.00,11,5,14,0.00
2013-12-1,50,44,38,28,26,24,58,49,40,0.00,40.00,23,8,30,0.00
2013-12-2,45,34,18,35,29,14,92,83,50,0.00,40.00,24,9,30,0.00
2013-12-3,17,10,4,13,4,-2,83,78,76,0.00,40.00,22,8,27,0.00
2013-12-4,8,1,-4,-1,-5,-10,76,73,64,0.00,40.00,0,0,4,0.00
2013-12-5,-3,-8,-11,-11,-15,-19,71,68,64,0.00,40.00,11,1,13,0.00
2013-12-6,-9,-14,-19,-16,-21,-26,71,69,68,0.00,40.00,10,3,13,0.00
2013-12-7,-10,-17,-22,-18,-26,-100,69,67,68,0.00,40.00,8,2,11,0.00
2013-12-8,5,-2,-20,-2,-12,-27,73,64,54,0.00,40.00,17,10,21,0.00
2013-12-9,21,10,0,4,-3,-11,65,54,47,0.00,40.00,35,16,40,0.00
2013-12-10,27,19,11,19,9,3,83,64,43,0.00,40.00,29,10,35,0.00
2013-12-11,27,18,7,8,5,2,80,59,42,0.00,40.00,19,6,24,0.00
2013-12-12,41,30,19,16,12,5,56,47,36,0.00,40.00,21,9,26,0.00
2013-12-13,38,35,32,29,20,13,78,54,41,0.00,40.00,17,10,28,0.00
2013-12-14,41,34,25,22,17,-100,64,52,44,0.00,40.00,22,13,29,0.00
2013-12-15,47,43,38,21,19,18,50,39,31,0.00,40.00,21,15,39,0.00
2013-12-16,46,39,28,21,19,17,75,45,34,0.00,40.00,21,13,27,0.00
2013-12-17,50,40,26,23,20,18,79,50,30,0.00,40.00,19,10,24,0.00
2013-12-18,48,40,25,27,21,18,92,51,31,0.00,40.00,22,11,24,0.00
2013-12-19,23,6,0,21,0,-6,90,78,74,0.00,40.00,27,10,32,0.00
2013-12-20,26,14,1,5,2,-5,76,59,36,0.00,40.00,13,7,14,0.00
2013-12-21,27,22,14,21,13,-100,86,74,46,0.00,40.00,13,6,16,0.00
2013-12-22,14,9,1,10,4,-3,84,82,79,0.00,40.00,12,5,15,0.00
2013-12-23,38,17,2,22,9,-2,81,72,50,0.00,40.00,32,2,54,0.00
2013-12-24,37,34,28,31,19,11,87,55,43,0.00,40.00,32,17,54,0.00
2013-12-25,38,30,23,13,10,7,50,44,33,0.00,40.00,26,14,31,0.00
2013-12-26,44,39,34,21,17,12,42,40,39,0.00,40.00,17,14,24,0.00
2013-12-27,48,44,40,23,20,19,43,39,34,0.00,40.00,22,10,28,0.00
2013-12-28,42,21,8,21,7,0,73,57,38,0.00,40.00,20,11,22,0.00
2013-12-29,32,23,13,14,11,6,77,61,46,0.00,40.00,14,7,21,0.00
2013-12-30,41,36,31,22,19,18,63,51,43,0.00,40.00,17,9,21,0.00
2013-12-31,41,38,31,30,24,19,91,61,43,0.00,40.00,18,8,22,0.00
2014-1-1,31,27,22,28,22,15,89,80,64,0.00,40.00,7,2,9,0.00
2014-1-2,39,29,20,19,16,10,81,59,45,0.00,40.00,22,10,27,0.00